Wednesday, August 15, 2018, 8:43 AM GMT
Back to Local

CWPE, Point Lepreau, N. B.

Location: , , Canada Lat: 45.067
Local Time: 8:43 AM GMT ( 8:43 GMT) Lon: -66.467
Time Zone: GMT Elev: 3 ft

Show me the last for .
Show Coded

Time T Td Feel RH Dir Speed Gust Alt SLP Vis Weather Sky Remarks
2018-08-15 08:00 60 60 - 99 170° 1 - - 29.83 0 None
2018-08-15 07:00 60 60 - 99 - Calm - - 29.84 0 None
2018-08-15 06:00 60 60 - 99 220° 1 - - 29.85 0 1-hr Precip Total: 0.01"
2018-08-15 05:00 60 60 - 99 250° 3 - - 29.87 0 None
2018-08-15 04:00 61 61 - 99 170° 2 - - 29.87 0 None
2018-08-15 03:00 61 61 - 99 140° 1 - - 29.87 0 1-hr Precip Total: 0.01"
2018-08-15 02:00 61 61 - 99 110° 2 - - 29.87 0 None
2018-08-15 01:00 61 61 - 99 120° 2 - - 29.88 0 None
2018-08-15 00:00 61 61 - 98 170° 1 - - 29.88 0 None
2018-08-14 23:00 62 60 - 92 130° 3 - - 29.87 0 None
2018-08-14 22:00 63 63 - 98 120° 2 - - 29.87 0 None
2018-08-14 21:00 64 63 - 98 110° 3 - - 29.88 0 None
2018-08-14 20:00 65 64 - 97 90° 5 - - 29.89 0 None
2018-08-14 19:00 65 64 - 96 110° 3 - - 29.90 0 None
2018-08-14 18:00 63 61 - 94 90° 3 - - 29.93 0 None
2018-08-14 17:00 65 64 - 96 60° 8 - - 29.92 0 1-hr Precip Total: 0.21"
2018-08-14 16:00 65 64 - 96 60° 8 - - 29.93 0 1-hr Precip Total: 0.44"
2018-08-14 15:00 63 61 - 95 50° 8 - - 29.96 0 1-hr Precip Total: 0.10"
2018-08-14 14:00 65 61 - 85 60° 6 - - 29.96 0 None
2018-08-14 13:00 65 56 - 72 50° 7 - - 29.97 0 None
2018-08-14 12:00 64 56 - 76 50° 7 - - 29.98 0 None
2018-08-14 11:00 65 57 - 77 70° 6 - - 29.97 0 None
2018-08-14 10:00 63 58 - 81 100° 3 - - 29.98 0 None
2018-08-14 09:00 61 58 - 88 - Calm - - 29.98 0 None

Support USWX by starting your Amazon purchase here.